Time;durP1;ratioP1;P1;durP2;ratioP2;P2;SDS_P1;SDS_P2;PMS_P1;PMS_P2;Temp;Humidity;BMP_temperature;BMP_pressure;BME280_temperature;BME280_humidity;BME280_pressure;Samples;Min_cycle;Max_cycle;Signal;HPM_P1;HPM_P2
2022/04/12 00:01:30;;;;;;;;;6.67;4.00;;;;;16.25;52.33;100312.47;5038952;28;46234;-45
2022/04/12 00:03:55;;;;;;;;;6.00;4.00;;;;;16.21;52.25;100298.59;5039756;28;45349;-43
2022/04/12 00:06:21;;;;;;;;;6.00;5.00;;;;;16.21;51.73;100302.09;5039795;28;45341;-43
2022/04/12 00:08:46;;;;;;;;;3.00;3.00;;;;;16.16;52.44;100307.22;5040114;28;45314;-45
2022/04/12 00:11:11;;;;;;;;;3.00;3.00;;;;;16.11;52.27;100306.16;5039725;28;46229;-43
2022/04/12 00:13:37;;;;;;;;;3.00;3.00;;;;;16.07;52.63;100303.03;5039684;28;45273;-45
2022/04/12 00:16:03;;;;;;;;;3.00;3.00;;;;;16.03;52.70;100301.75;5040531;28;45382;-45
2022/04/12 00:21:12;;;;;;;;;3.67;3.00;;;;;15.97;52.92;100313.28;5039418;28;45436;-43
2022/04/12 00:23:37;;;;;;;;;3.67;3.67;;;;;15.94;53.20;100303.75;5039371;28;45354;-43
2022/04/12 00:26:02;;;;;;;;;3.67;3.67;;;;;15.90;52.42;100302.47;5039764;28;45325;-43
2022/04/12 00:28:28;;;;;;;;;10.00;4.33;;;;;15.89;53.08;100311.53;5039766;28;45297;-42
2022/04/12 00:30:53;;;;;;;;;5.00;4.00;;;;;15.82;53.73;100310.63;5039543;28;45974;-43
2022/04/12 00:33:19;;;;;;;;;3.67;3.67;;;;;15.81;54.11;100318.88;5039363;28;45376;-44
2022/04/12 00:35:44;;;;;;;;;5.00;3.00;;;;;15.78;53.29;100316.56;5039548;28;45290;-42
2022/04/12 00:38:22;;;;;;;;;4.00;2.00;;;;;15.73;53.79;100319.00;5039411;28;45537;-43
2022/04/12 00:40:48;;;;;;;;;3.00;3.00;;;;;15.65;54.35;100315.41;5038036;28;48342;-43
2022/04/12 00:43:19;;;;;;;;;4.00;3.00;;;;;15.48;54.18;100287.97;5039174;28;45445;-43
2022/04/12 00:45:46;;;;;;;;;5.00;2.00;;;;;15.55;54.14;100300.63;5039413;28;45330;-45
2022/04/12 00:48:12;;;;;;;;;4.00;4.00;;;;;15.39;54.86;100286.44;5039352;28;45512;-43
2022/04/12 00:50:40;;;;;;;;;5.33;4.00;;;;;15.46;55.00;100300.75;5038824;28;47005;-44
2022/04/12 00:53:07;;;;;;;;;5.00;5.00;;;;;15.41;54.59;100294.28;5037781;28;45301;-45
2022/04/12 00:55:34;;;;;;;;;5.00;3.00;;;;;15.34;54.77;100280.81;5038867;28;45344;-44
2022/04/12 00:58:05;;;;;;;;;4.33;4.33;;;;;15.32;54.78;100282.03;5039168;28;45374;-43
2022/04/12 01:00:31;;;;;;;;;7.00;3.00;;;;;15.34;55.13;100288.88;5038843;28;46529;-43
2022/04/12 01:02:57;;;;;;;;;3.00;3.00;;;;;15.26;55.03;100286.31;5038718;28;45362;-43
2022/04/12 01:05:22;;;;;;;;;4.67;4.67;;;;;15.27;55.52;100297.84;5038931;28;45430;-45
2022/04/12 01:07:48;;;;;;;;;4.00;3.00;;;;;15.23;55.70;100286.66;5037801;28;45538;-44
2022/04/12 01:10:13;;;;;;;;;4.00;4.00;;;;;15.21;55.19;100277.97;5038820;28;45312;-42
2022/04/12 01:12:39;;;;;;;;;3.67;3.00;;;;;15.20;55.46;100277.16;5037464;28;45302;-44
2022/04/12 01:15:24;;;;;;;;;6.00;4.00;;;;;15.22;55.41;100276.97;5038841;28;45446;-42
2022/04/12 01:17:50;;;;;;;;;3.67;3.00;;;;;15.20;55.22;100263.75;5038862;28;45289;-42
2022/04/12 01:20:19;;;;;;;;;3.67;3.00;;;;;15.18;55.44;100271.16;5038285;28;45980;-42
2022/04/12 01:23:18;;;;;;;;;7.00;4.67;;;;;15.14;55.75;100277.91;5038460;28;45291;-44
2022/04/12 01:25:44;;;;;;;;;3.67;3.67;;;;;15.10;56.24;100283.84;5038677;28;45341;-43
2022/04/12 01:28:10;;;;;;;;;3.00;3.00;;;;;15.03;56.41;100283.72;5038700;28;45330;-42
2022/04/12 01:30:36;;;;;;;;;5.00;4.33;;;;;14.98;56.13;100286.16;5038471;28;45393;-42
2022/04/12 01:33:02;;;;;;;;;4.00;3.33;;;;;14.85;55.03;100260.03;5038366;28;45203;-43
2022/04/12 01:35:27;;;;;;;;;4.00;3.67;;;;;14.95;56.43;100273.13;5038449;28;45314;-43
2022/04/12 01:37:53;;;;;;;;;4.00;4.00;;;;;14.84;56.42;100260.22;5038947;28;45240;-41
2022/04/12 01:40:19;;;;;;;;;4.33;4.33;;;;;14.87;56.46;100274.03;5038774;28;47002;-45
2022/04/12 01:42:44;;;;;;;;;7.67;4.33;;;;;14.85;56.72;100269.91;5039061;28;45251;-45
2022/04/12 01:45:10;;;;;;;;;3.33;3.33;;;;;14.81;56.72;100276.66;5039098;28;45399;-45
2022/04/12 01:47:36;;;;;;;;;7.00;4.00;;;;;14.80;56.73;100278.50;5038471;28;45317;-48
2022/04/12 01:50:03;;;;;;;;;4.33;3.00;;;;;14.80;56.33;100293.75;5036661;28;46948;-42
2022/04/12 01:52:28;;;;;;;;;6.00;4.67;;;;;14.78;55.65;100293.91;5037864;28;45432;-43
2022/04/12 01:54:54;;;;;;;;;9.00;4.00;;;;;14.76;56.63;100295.13;5038110;28;45357;-43
2022/04/12 01:57:19;;;;;;;;;3.67;3.67;;;;;14.76;56.32;100301.31;5038028;28;45300;-45
2022/04/12 01:59:44;;;;;;;;;4.00;4.00;;;;;14.76;56.43;100300.50;5038078;28;45465;-43
2022/04/12 02:02:10;;;;;;;;;6.00;4.00;;;;;14.76;56.69;100295.13;5038134;28;45412;-44
2022/04/12 02:04:35;;;;;;;;;3.00;3.00;;;;;14.73;56.41;100286.44;5038110;28;45405;-44
2022/04/12 02:07:01;;;;;;;;;4.00;4.00;;;;;14.69;56.26;100277.13;5038009;28;45436;-46
2022/04/12 02:09:26;;;;;;;;;3.33;3.33;;;;;14.73;56.37;100277.56;5037674;28;45992;-43
2022/04/12 02:11:53;;;;;;;;;4.00;4.00;;;;;14.71;56.21;100277.78;5037817;28;45234;-43
2022/04/12 02:14:19;;;;;;;;;5.00;4.67;;;;;14.72;55.81;100276.75;5037904;28;45468;-43
2022/04/12 02:16:44;;;;;;;;;6.33;5.00;;;;;14.75;56.04;100282.72;5037880;28;45309;-43
2022/04/12 02:19:10;;;;;;;;;2.67;2.33;;;;;14.73;56.18;100281.06;5037588;28;46035;-45
2022/04/12 02:21:35;;;;;;;;;7.00;3.00;;;;;14.75;56.28;100274.69;5037650;28;45400;-42
2022/04/12 02:24:00;;;;;;;;;3.33;3.33;;;;;14.72;56.37;100274.06;5037299;28;45265;-43
2022/04/12 02:26:26;;;;;;;;;4.00;4.00;;;;;14.71;56.57;100264.38;5038014;28;45448;-42
2022/04/12 02:28:51;;;;;;;;;3.33;3.00;;;;;14.68;55.89;100261.25;5037499;28;46014;-44
2022/04/12 02:31:16;;;;;;;;;4.33;4.00;;;;;14.73;56.32;100272.22;5037672;28;45425;-43
2022/04/12 02:33:42;;;;;;;;;3.00;3.00;;;;;14.69;55.98;100270.94;5037656;28;45270;-43
2022/04/12 02:36:07;;;;;;;;;5.00;3.00;;;;;14.66;56.64;100265.94;5037713;28;45280;-43
2022/04/12 02:38:32;;;;;;;;;3.33;3.33;;;;;14.66;55.83;100272.16;5037130;28;45948;-42
2022/04/12 02:40:58;;;;;;;;;4.67;4.67;;;;;14.64;56.44;100276.84;5037224;28;45345;-42
2022/04/12 02:43:23;;;;;;;;;3.00;2.00;;;;;14.62;56.41;100272.66;5037499;28;45271;-43
2022/04/12 02:45:49;;;;;;;;;6.67;6.33;;;;;14.57;56.43;100275.91;5037430;28;45549;-43
2022/04/12 02:48:14;;;;;;;;;3.67;3.00;;;;;14.55;56.22;100269.91;5037340;28;45456;-44
2022/04/12 02:50:40;;;;;;;;;4.00;4.00;;;;;14.60;55.76;100272.88;5035952;28;45462;-43
2022/04/12 02:53:05;;;;;;;;;3.00;3.00;;;;;14.60;56.59;100280.06;5037061;28;45366;-43
2022/04/12 02:55:31;;;;;;;;;7.00;4.33;;;;;14.50;56.33;100272.31;5037438;28;45309;-44
2022/04/12 02:57:56;;;;;;;;;7.67;4.00;;;;;14.51;56.58;100271.31;5037080;28;46181;-43
2022/04/12 03:00:21;;;;;;;;;3.33;3.33;;;;;14.53;55.89;100271.94;5037129;28;45329;-43
2022/04/12 03:02:47;;;;;;;;;4.00;3.00;;;;;14.56;55.84;100276.94;5037404;28;45395;-42
2022/04/12 03:05:12;;;;;;;;;4.67;4.00;;;;;14.48;55.81;100266.28;5037282;28;45399;-44
2022/04/12 03:07:38;;;;;;;;;3.00;3.00;;;;;14.51;55.38;100259.78;5036996;28;45364;-45
2022/04/12 03:10:04;;;;;;;;;4.00;4.00;;;;;14.40;55.86;100243.09;5037035;28;45259;-42
2022/04/12 03:12:29;;;;;;;;;5.00;3.67;;;;;14.46;55.41;100252.25;5037074;28;45269;-43
2022/04/12 03:14:55;;;;;;;;;2.33;2.33;;;;;14.39;55.21;100235.28;5037337;28;45298;-44
2022/04/12 03:17:20;;;;;;;;;3.33;3.00;;;;;14.46;55.07;100231.69;5036851;28;46721;-45
2022/04/12 03:19:46;;;;;;;;;3.33;3.33;;;;;14.49;54.89;100235.84;5036756;28;45389;-44
2022/04/12 03:22:12;;;;;;;;;5.00;4.00;;;;;14.49;54.68;100243.88;5036911;28;45379;-43
2022/04/12 03:24:38;;;;;;;;;5.00;5.00;;;;;14.50;54.09;100244.72;5037028;28;45292;-43
2022/04/12 03:27:04;;;;;;;;;5.00;3.00;;;;;14.45;54.81;100239.88;5036916;28;47174;-44
2022/04/12 03:29:30;;;;;;;;;3.00;3.00;;;;;14.42;54.86;100240.25;5036691;28;45339;-46
2022/04/12 03:31:55;;;;;;;;;6.00;4.00;;;;;14.36;55.07;100247.16;5036824;28;45269;-46
2022/04/12 03:34:21;;;;;;;;;5.00;4.00;;;;;14.28;55.19;100230.38;5037120;28;45396;-43
2022/04/12 03:36:46;;;;;;;;;4.00;3.00;;;;;14.33;55.41;100234.16;5039951;28;45389;-43
2022/04/12 03:39:17;;;;;;;;;5.00;5.00;;;;;14.31;55.51;100240.72;5040173;28;45711;-43
2022/04/12 03:41:45;;;;;;;;;4.00;4.00;;;;;14.28;54.99;100241.88;5040420;28;45374;-42
2022/04/12 03:44:11;;;;;;;;;5.67;4.00;;;;;14.30;54.88;100261.28;5040306;28;45350;-43
2022/04/12 03:46:36;;;;;;;;;5.33;3.33;;;;;14.29;54.90;100261.47;5040049;28;45225;-43
2022/04/12 03:49:02;;;;;;;;;4.00;4.00;;;;;14.25;54.88;100263.69;5040250;28;45183;-43
2022/04/12 03:51:27;;;;;;;;;5.33;4.67;;;;;14.22;54.29;100267.53;5040321;28;45656;-44
2022/04/12 03:53:52;;;;;;;;;4.00;3.00;;;;;14.22;54.74;100258.69;5040368;28;45409;-43
2022/04/12 03:56:19;;;;;;;;;3.00;3.00;;;;;14.21;54.21;100259.72;5040413;28;45356;-42
2022/04/12 03:58:44;;;;;;;;;5.00;4.00;;;;;14.17;54.09;100258.41;5040368;28;45380;-42
2022/04/12 04:01:10;;;;;;;;;4.33;3.00;;;;;14.15;54.03;100255.91;5040805;28;45420;-42
2022/04/12 04:03:35;;;;;;;;;8.00;3.67;;;;;14.14;54.05;100250.75;5041020;28;45432;-43
2022/04/12 04:06:02;;;;;;;;;2.00;2.00;;;;;14.02;53.47;100236.13;5040546;28;46328;-45
2022/04/12 04:08:27;;;;;;;;;4.33;4.00;;;;;14.11;54.01;100248.41;5040075;28;45401;-42
2022/04/12 04:10:53;;;;;;;;;2.33;2.33;;;;;14.09;53.90;100240.59;5039794;28;45508;-44
2022/04/12 04:13:18;;;;;;;;;3.00;3.00;;;;;14.09;53.70;100237.91;5039859;28;45401;-44
2022/04/12 04:15:45;;;;;;;;;2.67;2.67;;;;;14.08;53.95;100249.63;5039775;28;45915;-43
2022/04/12 04:18:14;;;;;;;;;2.00;2.00;;;;;14.04;53.55;100250.19;5039584;28;45524;-42
2022/04/12 04:20:40;;;;;;;;;3.00;3.00;;;;;14.05;53.98;100246.47;5039572;28;45194;-44
2022/04/12 04:23:06;;;;;;;;;3.33;3.00;;;;;14.06;53.67;100251.63;5039715;28;45333;-43
2022/04/12 04:25:31;;;;;;;;;4.67;3.00;;;;;14.05;53.51;100258.00;5039263;28;45427;-43
2022/04/12 04:27:57;;;;;;;;;4.00;2.00;;;;;14.05;53.33;100260.69;5039724;28;45500;-43
2022/04/12 04:30:22;;;;;;;;;1.00;0.33;;;;;14.01;52.34;100256.72;5039566;28;45840;-42
2022/04/12 04:32:49;;;;;;;;;6.33;3.33;;;;;13.98;53.20;100270.44;5039542;28;45329;-42
2022/04/12 04:35:15;;;;;;;;;3.67;3.00;;;;;13.94;53.66;100264.59;5039268;28;46234;-43
2022/04/12 04:37:48;;;;;;;;;3.00;2.67;;;;;13.89;53.25;100264.31;5039128;28;45352;-44
2022/04/12 04:40:15;;;;;;;;;2.00;2.00;;;;;13.84;53.75;100266.72;5039365;28;45565;-44
2022/04/12 04:42:40;;;;;;;;;3.00;2.67;;;;;13.79;53.47;100273.63;5039531;28;45341;-47
2022/04/12 04:45:07;;;;;;;;;4.33;3.33;;;;;13.76;53.66;100263.28;5038960;28;46251;-44
2022/04/12 04:47:33;;;;;;;;;4.00;3.00;;;;;13.68;53.77;100270.34;5038902;28;45295;-44
2022/04/12 04:49:58;;;;;;;;;3.00;3.00;;;;;13.66;53.50;100276.88;5039219;28;45433;-43
2022/04/12 04:52:23;;;;;;;;;5.00;2.00;;;;;13.66;53.93;100280.38;5039418;28;45345;-45
2022/04/12 04:54:49;;;;;;;;;3.00;3.00;;;;;13.66;53.99;100284.91;5038859;28;45919;-45
2022/04/12 04:57:14;;;;;;;;;7.00;4.00;;;;;13.60;53.35;100281.06;5038810;28;45431;-45
2022/04/12 04:59:39;;;;;;;;;4.33;3.33;;;;;13.64;53.78;100292.25;5039165;28;45330;-45
2022/04/12 05:02:05;;;;;;;;;4.00;3.67;;;;;13.64;53.73;100287.72;5039274;28;45175;-46
2022/04/12 05:04:30;;;;;;;;;6.00;3.33;;;;;13.62;53.72;100288.94;5039081;28;45350;-44
2022/04/12 05:06:56;;;;;;;;;4.00;4.00;;;;;13.58;53.15;100292.97;5038864;28;45373;-43
2022/04/12 05:09:21;;;;;;;;;4.00;4.00;;;;;13.53;53.80;100287.34;5038705;28;45148;-45
2022/04/12 05:11:47;;;;;;;;;9.33;4.67;;;;;13.52;54.01;100299.84;5039253;28;45418;-44
2022/04/12 05:14:12;;;;;;;;;8.00;4.00;;;;;13.56;53.71;100300.31;5038606;28;46285;-44
2022/04/12 05:16:37;;;;;;;;;7.00;4.33;;;;;13.57;53.55;100307.31;5038646;28;45421;-45
2022/04/12 05:19:03;;;;;;;;;5.00;3.00;;;;;13.48;53.59;100298.53;5038615;28;45573;-42
2022/04/12 05:21:28;;;;;;;;;8.33;4.00;;;;;13.53;53.48;100317.56;5038917;28;45267;-45
2022/04/12 05:23:53;;;;;;;;;7.00;3.00;;;;;13.50;53.90;100330.44;5038385;28;45491;-43
2022/04/12 05:26:19;;;;;;;;;3.00;3.00;;;;;13.45;53.93;100321.09;5038688;28;45407;-43
2022/04/12 05:28:44;;;;;;;;;4.00;4.00;;;;;13.55;53.72;100320.88;5038718;28;45767;-44
2022/04/12 05:31:09;;;;;;;;;4.00;3.00;;;;;13.50;53.64;100319.75;5038640;28;45423;-43
2022/04/12 05:33:35;;;;;;;;;4.00;3.00;;;;;13.46;53.94;100322.75;5038330;28;45996;-46
2022/04/12 05:36:00;;;;;;;;;3.33;2.67;;;;;13.44;54.15;100329.28;5038510;28;45354;-43
2022/04/12 05:38:25;;;;;;;;;3.00;3.00;;;;;13.42;54.30;100315.28;5038379;28;45616;-44
2022/04/12 05:40:51;;;;;;;;;3.00;3.00;;;;;13.41;54.33;100313.63;5038583;28;45522;-44
2022/04/12 05:43:16;;;;;;;;;6.33;3.00;;;;;13.46;54.50;100314.75;5038265;28;46053;-46
2022/04/12 05:45:41;;;;;;;;;3.00;3.00;;;;;13.50;54.09;100322.41;5038335;28;45217;-45
2022/04/12 05:48:07;;;;;;;;;3.33;3.00;;;;;13.50;54.67;100320.56;5038307;28;45245;-43
2022/04/12 05:50:32;;;;;;;;;6.67;3.33;;;;;13.54;53.92;100335.25;5038422;28;45339;-43
2022/04/12 05:52:58;;;;;;;;;6.33;4.00;;;;;13.61;53.96;100335.34;5038130;28;45980;-45
2022/04/12 05:55:24;;;;;;;;;4.00;4.00;;;;;13.64;54.21;100343.03;5037756;28;45386;-44
2022/04/12 05:57:59;;;;;;;;;5.67;5.00;;;;;13.70;53.74;100337.00;5037408;28;45287;-43
2022/04/12 06:00:30;;;;;;;;;9.00;4.00;;;;;13.72;53.96;100349.16;5038130;28;45366;-43
2022/04/12 06:02:57;;;;;;;;;8.00;5.67;;;;;13.77;54.12;100340.59;5037762;28;45434;-43
2022/04/12 06:05:24;;;;;;;;;8.67;5.33;;;;;13.76;53.51;100341.63;5037793;28;45341;-44
2022/04/12 06:07:50;;;;;;;;;8.33;4.00;;;;;13.83;53.32;100341.75;5037959;28;45326;-42
2022/04/12 06:10:18;;;;;;;;;8.00;4.00;;;;;13.91;53.06;100345.22;5037831;28;45596;-45
2022/04/12 06:12:44;;;;;;;;;6.33;4.00;;;;;13.96;52.57;100350.84;5037738;28;45427;-44
2022/04/12 06:15:10;;;;;;;;;5.00;5.00;;;;;14.04;53.04;100343.78;5037585;28;45452;-44
2022/04/12 06:17:36;;;;;;;;;5.67;3.00;;;;;14.09;52.89;100350.25;5037801;28;45441;-43
2022/04/12 06:20:11;;;;;;;;;5.00;5.00;;;;;14.08;52.77;100329.03;5037932;28;45375;-44
2022/04/12 06:22:38;;;;;;;;;6.33;4.00;;;;;14.18;52.38;100338.47;5037841;28;46539;-43
2022/04/12 06:25:05;;;;;;;;;4.00;4.00;;;;;14.20;52.20;100349.00;5037356;28;45380;-44
2022/04/12 06:27:39;;;;;;;;;3.67;3.33;;;;;14.23;52.32;100352.13;5037543;28;45190;-45
2022/04/12 06:30:06;;;;;;;;;8.00;4.67;;;;;14.31;52.49;100353.09;5037771;28;45449;-42
2022/04/12 06:32:32;;;;;;;;;5.00;5.00;;;;;14.40;51.49;100357.34;5036808;28;46393;-45
2022/04/12 06:34:58;;;;;;;;;6.00;4.67;;;;;14.42;51.84;100358.84;5037479;28;45428;-43
2022/04/12 06:37:25;;;;;;;;;4.33;3.00;;;;;14.46;51.82;100370.03;5037473;28;45685;-45
2022/04/12 06:39:50;;;;;;;;;6.33;4.00;;;;;14.50;51.66;100375.88;5037328;28;45450;-43
2022/04/12 06:42:15;;;;;;;;;6.33;6.33;;;;;14.52;51.42;100380.00;5037432;28;46323;-44
2022/04/12 06:44:41;;;;;;;;;6.67;4.00;;;;;14.57;51.02;100391.00;5037384;28;45317;-45
2022/04/12 06:47:07;;;;;;;;;8.67;5.33;;;;;14.63;51.09;100389.47;5037572;28;45302;-46
2022/04/12 06:49:33;;;;;;;;;7.33;5.00;;;;;14.76;50.69;100400.38;5037399;28;45267;-45
2022/04/12 06:51:59;;;;;;;;;6.33;6.33;;;;;14.76;50.38;100392.34;5037197;28;45429;-43
2022/04/12 06:54:25;;;;;;;;;7.33;7.00;;;;;14.83;50.59;100395.09;5037243;28;45444;-43
2022/04/12 06:56:50;;;;;;;;;6.00;4.33;;;;;14.93;50.46;100401.06;5036829;28;45447;-44
2022/04/12 06:59:16;;;;;;;;;6.67;5.00;;;;;15.00;50.09;100404.66;5037429;28;45302;-45
2022/04/12 07:01:41;;;;;;;;;10.00;7.00;;;;;15.09;50.05;100424.16;5036893;28;47098;-44
2022/04/12 07:04:07;;;;;;;;;8.00;5.00;;;;;15.12;49.88;100426.44;5036933;28;45656;-44
2022/04/12 07:06:32;;;;;;;;;4.33;4.33;;;;;15.25;49.45;100433.84;5037128;28;45607;-45
2022/04/12 07:08:58;;;;;;;;;4.33;4.00;;;;;15.33;49.29;100425.72;5037287;28;45282;-45
2022/04/12 07:11:23;;;;;;;;;8.33;5.33;;;;;15.57;49.01;100422.75;5036704;28;46023;-43
2022/04/12 07:13:48;;;;;;;;;5.67;5.67;;;;;15.99;47.98;100420.38;5035677;28;45378;-44
2022/04/12 07:16:14;;;;;;;;;9.33;8.33;;;;;16.79;46.42;100448.84;5036980;28;45242;-43
2022/04/12 07:18:41;;;;;;;;;8.00;7.33;;;;;17.42;44.70;100436.22;5037385;28;45261;-44
2022/04/12 07:21:07;;;;;;;;;9.67;5.67;;;;;17.83;44.83;100440.81;5036849;28;46133;-43
2022/04/12 07:23:35;;;;;;;;;10.00;7.67;;;;;18.31;42.99;100435.31;5036829;28;45287;-46
2022/04/12 07:26:00;;;;;;;;;5.33;4.00;;;;;18.93;42.05;100429.56;5036959;28;45239;-45
2022/04/12 07:28:26;;;;;;;;;9.67;5.67;;;;;19.59;41.03;100436.69;5037134;28;45353;-44
2022/04/12 07:30:51;;;;;;;;;8.67;6.00;;;;;20.26;39.62;100423.69;5036823;28;47277;-43
2022/04/12 07:33:17;;;;;;;;;4.00;3.00;;;;;20.74;38.50;100435.84;5036712;28;45361;-45
2022/04/12 07:35:42;;;;;;;;;5.00;5.00;;;;;20.95;37.60;100442.72;5055054;28;45399;-45
2022/04/12 07:38:09;;;;;;;;;5.00;5.00;;;;;21.22;37.11;100438.69;5056760;28;45379;-43
2022/04/12 07:40:34;;;;;;;;;5.50;5.00;;;;;21.47;36.57;100441.38;5056326;28;46482;-45
2022/04/12 07:43:00;;;;;;;;;6.25;5.75;;;;;21.97;36.48;100434.94;5057214;28;45419;-45
2022/04/12 07:45:26;;;;;;;;;8.00;6.50;;;;;22.34;34.88;100427.56;5056621;28;45464;-46
2022/04/12 07:47:51;;;;;;;;;4.50;4.25;;;;;22.74;34.58;100425.03;5057150;28;45305;-45
2022/04/12 07:50:16;;;;;;;;;7.25;4.75;;;;;23.23;33.42;100422.94;5056395;28;45335;-45
2022/04/12 07:52:42;;;;;;;;;9.00;5.25;;;;;23.36;33.26;100421.84;5055317;28;45439;-45
2022/04/12 07:55:08;;;;;;;;;6.25;4.75;;;;;23.29;33.34;100427.41;5054733;28;45774;-45
2022/04/12 07:57:34;;;;;;;;;7.75;7.50;;;;;23.33;33.25;100422.31;5056251;28;45441;-47
2022/04/12 07:59:59;;;;;;;;;4.50;4.50;;;;;23.80;33.25;100420.34;5055997;28;46151;-46
2022/04/12 08:02:24;;;;;;;;;6.00;4.00;;;;;24.31;31.63;100415.00;5056276;28;45339;-46
2022/04/12 08:04:50;;;;;;;;;6.00;5.50;;;;;24.68;31.21;100409.13;5056414;28;45231;-45
2022/04/12 08:07:15;;;;;;;;;6.50;6.50;;;;;25.01;30.19;100411.00;5056555;28;45230;-43
2022/04/12 08:09:40;;;;;;;;;7.50;5.25;;;;;25.46;29.54;100407.28;5056215;28;46038;-43
2022/04/12 08:12:06;;;;;;;;;5.00;4.25;;;;;25.63;29.50;100403.41;5056078;28;45425;-43
2022/04/12 08:14:32;;;;;;;;;7.75;5.75;;;;;25.66;29.88;100401.25;5056184;28;45298;-46
2022/04/12 08:16:57;;;;;;;;;5.25;2.50;;;;;25.46;29.20;100399.94;5056349;28;45373;-45
2022/04/12 08:19:22;;;;;;;;;4.00;4.00;;;;;25.40;29.45;100400.94;5055836;28;46114;-44
2022/04/12 08:21:50;;;;;;;;;4.25;4.00;;;;;25.56;28.72;100397.31;5057871;28;45487;-43
2022/04/12 08:24:16;;;;;;;;;6.40;4.00;;;;;25.46;29.00;100401.84;5059695;28;45332;-44
2022/04/12 08:26:41;;;;;;;;;5.75;3.50;;;;;25.52;29.41;100409.81;5058913;28;45384;-48
2022/04/12 08:29:06;;;;;;;;;5.00;3.00;;;;;25.68;28.56;100407.28;5059414;28;45504;-47
2022/04/12 08:31:32;;;;;;;;;3.50;3.50;;;;;25.86;29.42;100415.94;5059528;28;45405;-43
2022/04/12 08:33:57;;;;;;;;;4.25;4.00;;;;;26.07;28.31;100410.72;5059740;28;45284;-45
2022/04/12 08:36:25;;;;;;;;;4.50;4.50;;;;;26.25;28.28;100406.78;5059864;28;45422;-43
2022/04/12 08:38:51;;;;;;;;;2.00;2.00;;;;;26.67;28.44;100408.81;5059255;28;47218;-43
2022/04/12 08:41:19;;;;;;;;;3.25;2.75;;;;;26.97;28.77;100400.00;5059124;28;45434;-45
2022/04/12 08:43:45;;;;;;;;;4.80;3.60;;;;;27.44;27.23;100391.84;5059332;28;45402;-45
2022/04/12 08:46:10;;;;;;;;;8.75;6.00;;;;;27.80;26.32;100381.03;5059487;28;45505;-45
2022/04/12 08:48:37;;;;;;;;;3.75;2.00;;;;;28.22;26.18;100389.03;5059062;28;45482;-44
2022/04/12 08:51:03;;;;;;;;;5.40;3.00;;;;;28.70;24.91;100397.00;5059078;28;45282;-44
2022/04/12 08:53:29;;;;;;;;;2.80;2.80;;;;;29.48;24.31;100402.00;5058906;28;45401;-45
2022/04/12 08:55:55;;;;;;;;;4.75;3.00;;;;;30.44;23.57;100397.91;5059204;28;45426;-47
2022/04/12 08:58:21;;;;;;;;;4.60;2.80;;;;;31.71;21.90;100386.66;5058481;28;46246;-43
2022/04/12 09:00:47;;;;;;;;;5.20;4.00;;;;;32.89;20.44;100391.09;5058851;28;45321;-46
2022/04/12 09:03:13;;;;;;;;;5.75;3.75;;;;;33.29;19.99;100386.78;5058856;28;45221;-43
2022/04/12 09:05:40;;;;;;;;;3.00;3.00;;;;;33.46;21.58;100389.75;5058772;28;45316;-44
2022/04/12 09:08:23;;;;;;;;;3.00;3.00;;;;;34.09;19.71;100396.34;5057506;28;48020;-45
2022/04/12 09:11:05;;;;;;;;;4.00;2.80;;;;;34.72;19.30;100392.56;5058678;28;45328;-46
2022/04/12 09:13:31;;;;;;;;;4.00;1.40;;;;;35.62;17.76;100372.09;5058600;28;45412;-43
2022/04/12 09:15:57;;;;;;;;;6.00;1.00;;;;;36.57;16.93;100382.34;5058535;28;45372;-46
2022/04/12 09:18:35;;;;;;;;;3.80;2.80;;;;;37.59;16.70;100382.22;5058304;28;46226;-47
2022/04/12 09:21:11;;;;;;;;;1.20;1.20;;;;;38.13;15.88;100384.25;5057402;28;45451;-44
2022/04/12 09:23:37;;;;;;;;;4.20;1.20;;;;;38.88;15.33;100392.50;5058300;28;45463;-46
2022/04/12 09:26:02;;;;;;;;;5.25;2.25;;;;;39.61;14.90;100383.31;5058858;28;45399;-43
2022/04/12 09:28:41;;;;;;;;;1.00;1.00;;;;;40.56;15.89;100384.50;5058311;28;46304;-45
2022/04/12 09:31:18;;;;;;;;;1.60;1.60;;;;;41.44;14.27;100381.53;5058491;28;45314;-43
2022/04/12 09:33:46;;;;;;;;;4.00;2.80;;;;;42.05;13.56;100371.66;5057333;28;45336;-47
2022/04/12 09:36:11;;;;;;;;;3.20;1.00;;;;;42.57;12.96;100373.88;5058496;27;45431;-43
2022/04/12 09:38:39;;;;;;;;;2.00;2.00;;;;;42.22;12.24;100362.00;5057973;28;46228;-45
2022/04/12 09:41:18;;;;;;;;;1.60;1.60;;;;;42.42;12.74;100377.59;5058096;28;45245;-45
2022/04/12 09:43:51;;;;;;;;;1.80;0.40;;;;;42.89;13.00;100375.63;5058090;28;45441;-45
2022/04/12 09:46:17;;;;;;;;;1.60;1.60;;;;;43.15;12.64;100366.47;5058056;28;45401;-45
2022/04/12 09:48:47;;;;;;;;;1.50;0.75;;;;;43.35;12.69;100371.56;5058234;28;45630;-43
2022/04/12 09:51:13;;;;;;;;;1.80;0.80;;;;;43.67;11.23;100354.44;5057973;28;45384;-43
2022/04/12 09:53:41;;;;;;;;;3.00;0.20;;;;;43.70;12.07;100362.06;5058094;28;45450;-46
2022/04/12 09:56:36;;;;;;;;;0.00;0.00;;;;;44.28;12.16;100355.97;5057897;28;45421;-46
2022/04/12 09:59:06;;;;;;;;;1.80;1.80;;;;;44.40;11.15;100351.28;5015375;28;45994;-46
2022/04/12 10:01:39;;;;;;;;;1.00;0.40;;;;;44.57;12.54;100359.03;5014766;28;45487;-42
2022/04/12 10:04:10;;;;;;;;;3.00;3.00;;;;;44.80;12.78;100372.91;5014871;28;45384;-50
2022/04/12 10:06:42;;;;;;;;;0.00;0.00;;;;;44.50;11.23;100370.19;5014909;28;45292;-47
2022/04/12 10:09:13;;;;;;;;;2.40;1.00;;;;;44.71;11.70;100358.38;5014647;28;46171;-45
2022/04/12 10:11:39;;;;;;;;;2.00;0.20;;;;;44.68;10.79;100354.38;5015424;28;45526;-44
2022/04/12 10:14:05;;;;;;;;;1.00;1.00;;;;;44.69;11.64;100361.59;5015557;28;45398;-46
2022/04/12 10:16:32;;;;;;;;;3.20;3.00;;;;;43.48;11.44;100355.38;5015533;28;45466;-46
2022/04/12 10:19:00;;;;;;;;;1.00;0.00;;;;;43.69;11.84;100340.84;5014615;28;45521;-46
2022/04/12 10:21:26;;;;;;;;;3.80;2.20;;;;;43.64;11.37;100343.97;5015079;28;45332;-45
2022/04/12 10:23:55;;;;;;;;;3.00;3.00;;;;;44.30;10.75;100333.97;5015150;28;45419;-47
2022/04/12 10:26:24;;;;;;;;;6.60;3.00;;;;;44.46;10.72;100319.69;5015627;28;45450;-44
2022/04/12 10:29:00;;;;;;;;;3.40;3.20;;;;;44.84;11.31;100316.78;5014396;28;46062;-49
2022/04/12 10:31:30;;;;;;;;;5.00;4.00;;;;;44.66;11.04;100325.06;5014928;28;45446;-43
2022/04/12 10:34:02;;;;;;;;;6.20;2.80;;;;;43.21;11.54;100326.56;5014758;28;45525;-44
2022/04/12 10:36:55;;;;;;;;;5.00;4.20;;;;;42.64;12.05;100333.25;5054211;28;45368;-47
2022/04/12 10:39:32;;;;;;;;;4.80;3.40;;;;;41.15;13.29;100313.06;5057417;28;46248;-45
2022/04/12 10:42:02;;;;;;;;;6.60;5.40;;;;;38.12;14.93;100336.22;5057377;28;45332;-44
2022/04/12 10:44:27;;;;;;;;;5.00;2.20;;;;;35.22;16.88;100333.44;5056810;28;45417;-47
2022/04/12 10:46:56;;;;;;;;;4.25;2.25;;;;;34.25;18.32;100349.84;5057575;28;45483;-42
2022/04/12 10:49:22;;;;;;;;;5.80;5.40;;;;;35.71;17.07;100350.78;5057047;28;45380;-44
2022/04/12 10:52:00;;;;;;;;;5.00;5.00;;;;;36.18;16.50;100348.97;5057206;28;45297;-42
2022/04/12 10:54:34;;;;;;;;;5.20;4.80;;;;;37.58;15.56;100352.03;5057213;28;45442;-47
2022/04/12 10:57:18;;;;;;;;;2.60;2.60;;;;;38.81;15.81;100375.56;5057130;28;45348;-43
2022/04/12 10:59:50;;;;;;;;;3.80;3.60;;;;;39.30;14.88;100361.69;5056553;28;47284;-47
2022/04/12 11:02:16;;;;;;;;;0.40;0.40;;;;;39.31;13.92;100338.25;5056967;28;45285;-46
2022/04/12 11:04:42;;;;;;;;;3.80;1.40;;;;;39.52;13.99;100350.03;5057185;28;45237;-45
2022/04/12 11:07:08;;;;;;;;;5.25;2.00;;;;;39.18;14.58;100365.25;5057107;28;45224;-45
2022/04/12 11:09:33;;;;;;;;;2.25;2.25;;;;;39.03;15.42;100374.31;5056771;28;46297;-45
2022/04/12 11:12:01;;;;;;;;;3.75;2.00;;;;;39.17;15.00;100377.56;5056993;28;45324;-45
2022/04/12 11:14:32;;;;;;;;;2.40;2.40;;;;;38.88;14.93;100376.63;5056819;28;45437;-47
2022/04/12 11:17:09;;;;;;;;;1.20;1.20;;;;;38.60;15.52;100389.50;5056974;28;45184;-44
2022/04/12 11:19:45;;;;;;;;;2.60;1.40;;;;;38.02;15.81;100392.22;5056708;28;45399;-45
2022/04/12 11:22:13;;;;;;;;;3.00;3.00;;;;;37.40;16.29;100395.72;5056668;28;45369;-46
2022/04/12 11:24:38;;;;;;;;;2.60;1.80;;;;;36.84;16.05;100384.69;5056714;28;45280;-43
2022/04/12 11:27:06;;;;;;;;;1.00;1.00;;;;;35.14;17.49;100403.34;5057374;28;45353;-45